Time;durP1;ratioP1;P1;durP2;ratioP2;P2;SDS_P1;SDS_P2;PMS_P1;PMS_P2;Temp;Humidity;BMP_temperature;BMP_pressure;BME280_temperature;BME280_humidity;BME280_pressure;Samples;Min_cycle;Max_cycle;Signal;HPM_P1;HPM_P2
2021/09/24 00:00:14;;;;;;;7.67;4.73;;;14.00;99.90;;;;;;5058157;28;20512;-81
2021/09/24 00:02:42;;;;;;;12.00;6.00;;;13.90;99.90;;;;;;5055948;28;20828;-81
2021/09/24 00:05:09;;;;;;;10.27;5.00;;;13.90;99.90;;;;;;5057005;28;20459;-81
2021/09/24 00:07:36;;;;;;;9.33;5.50;;;13.80;99.90;;;;;;5057061;28;20449;-81
2021/09/24 00:10:06;;;;;;;9.80;5.60;;;13.90;99.90;;;;;;5053813;28;20502;-81
2021/09/24 00:12:33;;;;;;;9.80;5.43;;;13.80;99.90;;;;;;5054916;28;20459;-81
2021/09/24 00:15:00;;;;;;;13.37;5.80;;;13.80;99.90;;;;;;5061117;28;20602;-79
2021/09/24 00:17:27;;;;;;;10.43;5.53;;;13.80;99.90;;;;;;5043643;28;20473;-80
2021/09/24 00:19:54;;;;;;;10.83;5.10;;;13.80;99.90;;;;;;5038223;28;20412;-81
2021/09/24 00:22:21;;;;;;;13.63;5.80;;;13.80;99.90;;;;;;5053158;28;20425;-81
2021/09/24 00:24:47;;;;;;;9.67;5.30;;;13.80;99.90;;;;;;5050839;28;20462;-81
2021/09/24 00:27:16;;;;;;;8.70;5.60;;;13.80;99.90;;;;;;5039367;28;20480;-79
2021/09/24 00:29:43;;;;;;;6.30;4.73;;;13.70;99.90;;;;;;5039412;28;20843;-79
2021/09/24 00:32:09;;;;;;;8.90;5.13;;;13.70;99.90;;;;;;5059214;28;20519;-78
2021/09/24 00:34:36;;;;;;;9.10;5.33;;;13.60;99.90;;;;;;5065648;28;20424;-78
2021/09/24 00:37:03;;;;;;;11.80;6.37;;;13.50;99.90;;;;;;5061973;28;20450;-79
2021/09/24 00:39:30;;;;;;;18.43;6.20;;;13.50;99.90;;;;;;5053607;28;20513;-78
2021/09/24 00:41:57;;;;;;;12.57;6.03;;;13.40;99.90;;;;;;5059210;28;20483;-80
2021/09/24 00:44:28;;;;;;;9.47;6.00;;;13.40;99.90;;;;;;5057242;28;20433;-80
2021/09/24 00:46:55;;;;;;;9.00;5.73;;;13.40;99.90;;;;;;5056427;28;20500;-81
2021/09/24 00:49:22;;;;;;;9.60;5.70;;;13.40;99.90;;;;;;5056068;28;20918;-80
2021/09/24 00:51:49;;;;;;;10.83;4.77;;;13.40;99.90;;;;;;5026550;28;20456;-81
2021/09/24 00:54:16;;;;;;;9.00;5.00;;;13.50;99.90;;;;;;5017190;28;20429;-81
2021/09/24 00:56:44;;;;;;;9.50;5.00;;;13.40;99.90;;;;;;5032762;28;20532;-81
2021/09/24 00:59:11;;;;;;;7.83;5.13;;;13.50;99.90;;;;;;5036432;28;20424;-80
2021/09/24 01:01:39;;;;;;;8.20;5.23;;;13.50;99.90;;;;;;5050959;28;20433;-80
2021/09/24 01:04:07;;;;;;;9.30;5.80;;;13.50;99.90;;;;;;5056409;28;20531;-80
2021/09/24 01:06:35;;;;;;;7.87;5.10;;;13.50;99.90;;;;;;5039224;28;20448;-80
2021/09/24 01:09:02;;;;;;;6.80;4.90;;;13.40;99.90;;;;;;5036750;28;20472;-81
2021/09/24 01:11:29;;;;;;;8.27;5.67;;;13.40;99.90;;;;;;5049311;28;20515;-81
2021/09/24 01:13:56;;;;;;;13.40;5.97;;;13.40;99.90;;;;;;5056167;28;21025;-80
2021/09/24 01:16:22;;;;;;;7.73;5.30;;;13.40;99.90;;;;;;5056377;28;20817;-81
2021/09/24 01:18:51;;;;;;;9.67;5.50;;;13.40;99.90;;;;;;5055628;28;20466;-80
2021/09/24 01:21:19;;;;;;;6.57;4.90;;;13.40;99.90;;;;;;5049194;28;20531;-81
2021/09/24 01:23:46;;;;;;;8.23;5.40;;;13.40;99.90;;;;;;5055700;28;20942;-79
2021/09/24 01:26:13;;;;;;;8.73;5.50;;;13.40;99.90;;;;;;5056396;28;20465;-80
2021/09/24 01:28:40;;;;;;;7.60;5.10;;;13.50;99.90;;;;;;5054734;28;20427;-80
2021/09/24 01:31:07;;;;;;;10.70;5.40;;;13.40;99.90;;;;;;5049879;28;20789;-80
2021/09/24 01:33:35;;;;;;;7.57;5.03;;;13.40;99.90;;;;;;5043222;28;20480;-79
2021/09/24 01:36:02;;;;;;;7.77;4.67;;;13.30;99.90;;;;;;5026657;28;20468;-80
2021/09/24 01:38:30;;;;;;;8.50;5.63;;;13.30;99.90;;;;;;5024586;28;20482;-78
2021/09/24 01:40:56;;;;;;;9.07;5.17;;;13.20;99.90;;;;;;5039941;28;20448;-80
2021/09/24 01:43:23;;;;;;;7.40;5.20;;;13.30;99.90;;;;;;5059618;28;20426;-81
2021/09/24 01:45:50;;;;;;;6.90;4.97;;;13.20;99.90;;;;;;5059042;28;20443;-80
2021/09/24 01:48:17;;;;;;;7.17;4.50;;;13.30;99.90;;;;;;5055275;28;20428;-80
2021/09/24 01:50:44;;;;;;;8.07;5.03;;;13.30;99.90;;;;;;5044767;28;20444;-80
2021/09/24 01:53:11;;;;;;;8.13;5.37;;;13.40;99.90;;;;;;5059631;28;20510;-80
2021/09/24 01:55:39;;;;;;;8.00;5.30;;;13.50;99.90;;;;;;5059469;28;20449;-81
2021/09/24 01:58:06;;;;;;;6.30;4.87;;;13.50;99.90;;;;;;5059067;28;20475;-81
2021/09/24 02:00:33;;;;;;;7.80;5.20;;;13.60;99.90;;;;;;5054598;28;20464;-80
2021/09/24 02:03:00;;;;;;;7.53;5.07;;;13.50;99.90;;;;;;5033195;28;20516;-79
2021/09/24 02:05:26;;;;;;;8.17;5.53;;;13.50;99.90;;;;;;5022640;28;20527;-80
2021/09/24 02:07:53;;;;;;;7.43;5.07;;;13.40;99.90;;;;;;5038947;28;20998;-80
2021/09/24 02:10:20;;;;;;;8.43;5.03;;;13.40;99.90;;;;;;5055234;28;20537;-81
2021/09/24 02:12:48;;;;;;;7.40;4.97;;;13.30;99.90;;;;;;5044024;28;20481;-79
2021/09/24 02:15:16;;;;;;;7.00;5.03;;;13.20;99.90;;;;;;5046321;28;20449;-80
2021/09/24 02:17:43;;;;;;;8.03;5.63;;;13.20;99.90;;;;;;5031288;28;20989;-80
2021/09/24 02:20:11;;;;;;;7.63;4.90;;;13.20;99.90;;;;;;5027343;28;20932;-80
2021/09/24 02:22:37;;;;;;;8.43;5.70;;;13.20;99.90;;;;;;5059597;28;20451;-80
2021/09/24 02:25:05;;;;;;;6.23;4.70;;;13.20;99.90;;;;;;5058589;28;20448;-80
2021/09/24 02:27:32;;;;;;;9.27;5.53;;;13.20;99.90;;;;;;5058457;28;20447;-80
2021/09/24 02:30:00;;;;;;;7.03;4.70;;;13.20;99.90;;;;;;5057188;28;20445;-80
2021/09/24 02:32:26;;;;;;;8.30;6.00;;;13.20;99.90;;;;;;5041155;28;20481;-81
2021/09/24 02:34:53;;;;;;;7.67;5.47;;;13.10;99.90;;;;;;5037485;28;20518;-80
2021/09/24 02:37:20;;;;;;;10.07;6.30;;;13.00;99.90;;;;;;5039017;28;20448;-80
2021/09/24 02:39:47;;;;;;;8.20;5.33;;;13.00;99.90;;;;;;5038674;28;20523;-80
2021/09/24 02:42:14;;;;;;;8.20;5.57;;;12.90;99.90;;;;;;5038930;28;20441;-81
2021/09/24 02:44:41;;;;;;;7.20;4.80;;;12.90;99.90;;;;;;5038369;28;20481;-81
2021/09/24 02:47:09;;;;;;;6.30;4.50;;;12.90;99.90;;;;;;5038555;28;20515;-81
2021/09/24 02:49:37;;;;;;;7.20;5.50;;;12.90;99.90;;;;;;5038597;28;20460;-80
2021/09/24 02:52:04;;;;;;;9.23;6.27;;;12.70;99.90;;;;;;5028855;28;20482;-80
2021/09/24 02:54:31;;;;;;;7.00;5.17;;;12.70;99.90;;;;;;5020088;28;20448;-81
2021/09/24 02:56:58;;;;;;;6.27;5.03;;;12.70;99.90;;;;;;5037927;28;20481;-81
2021/09/24 02:59:25;;;;;;;6.83;4.70;;;12.70;99.90;;;;;;5039622;28;20535;-80
2021/09/24 03:01:52;;;;;;;11.03;5.80;;;12.70;99.90;;;;;;5055383;28;20438;-80
2021/09/24 03:04:20;;;;;;;9.23;5.80;;;12.70;99.90;;;;;;5058192;28;20458;-80
2021/09/24 03:06:47;;;;;;;8.70;5.60;;;12.70;99.90;;;;;;5051401;28;20548;-80
2021/09/24 03:09:14;;;;;;;9.27;6.10;;;12.70;99.90;;;;;;5022647;28;20439;-80
2021/09/24 03:11:41;;;;;;;7.50;5.17;;;12.70;99.90;;;;;;5048344;28;20480;-80
2021/09/24 03:14:08;;;;;;;7.87;4.23;;;12.70;99.90;;;;;;5057806;28;20464;-80
2021/09/24 03:16:36;;;;;;;7.27;5.23;;;12.80;99.90;;;;;;5058108;28;20832;-80
2021/09/24 03:19:03;;;;;;;7.30;5.17;;;12.80;99.90;;;;;;5057744;28;20452;-80
2021/09/24 03:21:31;;;;;;;9.90;5.57;;;12.80;99.90;;;;;;5041109;28;20420;-80
2021/09/24 03:23:58;;;;;;;10.60;5.40;;;12.90;99.90;;;;;;5039404;28;20482;-80
2021/09/24 03:26:25;;;;;;;10.43;5.27;;;12.90;99.90;;;;;;5020490;28;21050;-80
2021/09/24 03:28:52;;;;;;;8.07;5.33;;;12.90;99.90;;;;;;5019032;28;20496;-80
2021/09/24 03:31:21;;;;;;;7.13;5.77;;;12.90;99.90;;;;;;5047541;28;20431;-80
2021/09/24 03:33:48;;;;;;;7.63;5.03;;;12.90;99.90;;;;;;5060105;28;20543;-80
2021/09/24 03:36:15;;;;;;;7.23;5.30;;;12.80;99.90;;;;;;5060392;28;20883;-80
2021/09/24 03:38:43;;;;;;;7.97;6.03;;;12.80;99.90;;;;;;5057188;28;20430;-79
2021/09/24 03:41:10;;;;;;;8.60;6.37;;;12.80;99.90;;;;;;5049729;28;20476;-78
2021/09/24 03:43:37;;;;;;;8.43;6.30;;;12.80;99.90;;;;;;5053152;28;20461;-81
2021/09/24 03:46:04;;;;;;;8.77;6.43;;;12.70;99.90;;;;;;5043496;28;20524;-78
2021/09/24 03:48:31;;;;;;;8.80;6.30;;;12.60;99.90;;;;;;5068549;28;20429;-78
2021/09/24 03:50:58;;;;;;;8.70;6.23;;;12.60;99.90;;;;;;5051198;28;20445;-80
2021/09/24 03:53:25;;;;;;;10.33;6.00;;;12.60;99.90;;;;;;5033281;28;20467;-79
2021/09/24 03:55:54;;;;;;;9.40;6.40;;;12.70;99.90;;;;;;5018218;28;20561;-81
2021/09/24 03:58:21;;;;;;;9.33;6.57;;;12.60;99.90;;;;;;5017819;28;20437;-80
2021/09/24 04:00:49;;;;;;;11.20;6.77;;;12.70;99.90;;;;;;5048727;23;20472;-82
2021/09/24 04:03:16;;;;;;;8.07;6.23;;;12.70;99.90;;;;;;5045204;28;20428;-82
2021/09/24 04:05:44;;;;;;;8.10;5.37;;;12.60;99.90;;;;;;5044707;28;20532;-82
2021/09/24 04:08:13;;;;;;;10.57;6.53;;;12.60;99.90;;;;;;5038828;28;20470;-81
2021/09/24 04:10:40;;;;;;;10.03;6.33;;;12.60;99.90;;;;;;5034171;28;20531;-82
2021/09/24 04:13:08;;;;;;;9.67;6.27;;;12.60;99.90;;;;;;5043604;28;20485;-81
2021/09/24 04:15:35;;;;;;;9.00;6.20;;;12.60;99.90;;;;;;5044210;28;20431;-81
2021/09/24 04:18:02;;;;;;;8.37;6.23;;;12.60;99.90;;;;;;5044514;28;20459;-81
2021/09/24 04:20:29;;;;;;;9.13;6.30;;;12.60;99.90;;;;;;5044747;28;20458;-81
2021/09/24 04:22:56;;;;;;;8.80;6.03;;;12.70;99.90;;;;;;5034464;28;20514;-81
2021/09/24 04:25:22;;;;;;;10.07;6.00;;;12.70;99.90;;;;;;5026536;28;20458;-82
2021/09/24 04:27:49;;;;;;;9.40;6.07;;;12.80;99.90;;;;;;5027485;28;20550;-82
2021/09/24 04:30:17;;;;;;;8.87;6.37;;;12.80;99.90;;;;;;5024936;28;20537;-81
2021/09/24 04:32:44;;;;;;;9.43;7.20;;;12.80;99.90;;;;;;5021102;28;20482;-81
2021/09/24 04:35:11;;;;;;;9.13;6.53;;;13.00;99.90;;;;;;5024999;28;20468;-81
2021/09/24 04:37:38;;;;;;;12.07;6.00;;;13.00;99.90;;;;;;5028728;28;20908;-81
2021/09/24 04:40:06;;;;;;;11.00;6.40;;;13.00;99.90;;;;;;5024616;28;21276;-81
2021/09/24 04:42:33;;;;;;;8.50;6.30;;;13.00;99.90;;;;;;5045012;28;20438;-81
2021/09/24 04:45:00;;;;;;;8.37;6.30;;;13.00;99.90;;;;;;5042951;28;20460;-81
2021/09/24 04:47:29;;;;;;;10.83;6.17;;;13.10;99.90;;;;;;5042498;28;20464;-83
2021/09/24 04:49:56;;;;;;;8.80;6.33;;;13.10;99.90;;;;;;5042397;28;20541;-81
2021/09/24 04:52:22;;;;;;;15.00;5.73;;;13.10;99.90;;;;;;5028704;28;20493;-82
2021/09/24 04:54:49;;;;;;;9.07;6.40;;;13.10;99.90;;;;;;5024814;28;20464;-81
2021/09/24 04:57:16;;;;;;;10.73;6.50;;;13.10;99.90;;;;;;5024554;28;20417;-82
2021/09/24 04:59:43;;;;;;;7.70;6.07;;;13.10;99.90;;;;;;5024091;28;21017;-82
2021/09/24 05:02:11;;;;;;;11.90;6.60;;;13.00;99.90;;;;;;5043949;28;20521;-82
2021/09/24 05:04:39;;;;;;;6.93;5.40;;;13.00;99.90;;;;;;5044367;28;20457;-82
2021/09/24 05:07:06;;;;;;;8.93;5.80;;;13.00;99.90;;;;;;5027416;28;20460;-81
2021/09/24 05:09:33;;;;;;;8.00;6.00;;;13.00;99.90;;;;;;5025795;28;20578;-81
2021/09/24 05:12:00;;;;;;;10.37;6.67;;;13.00;99.90;;;;;;5042505;28;20572;-81
2021/09/24 05:14:26;;;;;;;9.53;6.63;;;13.00;99.90;;;;;;5044707;28;20492;-81
2021/09/24 05:16:53;;;;;;;9.93;6.83;;;12.90;99.90;;;;;;5045488;28;20457;-81
2021/09/24 05:19:20;;;;;;;11.37;6.80;;;13.00;99.90;;;;;;5045342;28;20466;-80
2021/09/24 05:21:49;;;;;;;9.80;6.60;;;13.00;99.90;;;;;;5041421;28;20436;-81
2021/09/24 05:24:16;;;;;;;10.50;6.73;;;13.00;99.90;;;;;;5038760;28;20517;-81
2021/09/24 05:26:42;;;;;;;10.70;6.07;;;13.00;99.90;;;;;;5045597;28;20516;-81
2021/09/24 05:29:09;;;;;;;11.60;6.80;;;13.00;99.90;;;;;;5044828;28;20491;-82
2021/09/24 05:31:36;;;;;;;14.67;7.87;;;13.00;99.90;;;;;;5043980;28;20859;-82
2021/09/24 05:34:04;;;;;;;10.20;6.47;;;13.00;99.90;;;;;;5041548;28;20519;-82
2021/09/24 05:36:31;;;;;;;9.27;6.53;;;13.00;99.90;;;;;;5040463;28;20511;-82
2021/09/24 05:38:59;;;;;;;10.00;6.43;;;13.00;99.90;;;;;;5052255;28;20449;-82
2021/09/24 05:41:26;;;;;;;13.50;7.57;;;13.00;99.90;;;;;;5045395;28;20519;-85
2021/09/24 05:43:53;;;;;;;9.80;7.10;;;13.00;99.90;;;;;;5044644;28;20915;-85
2021/09/24 05:46:21;;;;;;;10.57;7.63;;;13.00;99.90;;;;;;5044762;28;20544;-85
2021/09/24 05:48:48;;;;;;;10.63;6.60;;;13.00;99.90;;;;;;5038461;28;20537;-85
2021/09/24 05:51:15;;;;;;;9.30;6.53;;;13.00;99.90;;;;;;5023531;28;20449;-85
2021/09/24 05:53:42;;;;;;;8.20;6.50;;;13.00;99.90;;;;;;5044840;28;20510;-85
2021/09/24 05:56:10;;;;;;;10.50;6.40;;;13.00;99.90;;;;;;5048282;28;20431;-85
2021/09/24 05:58:37;;;;;;;12.87;7.43;;;13.00;99.90;;;;;;5045128;28;20501;-85
2021/09/24 06:01:04;;;;;;;9.87;7.00;;;12.90;99.90;;;;;;5041082;28;20863;-85
2021/09/24 06:03:31;;;;;;;11.67;7.03;;;12.90;99.90;;;;;;5032515;28;20429;-86
2021/09/24 06:05:58;;;;;;;11.17;7.33;;;13.00;99.90;;;;;;5019562;28;20496;-85
2021/09/24 06:08:26;;;;;;;15.60;7.57;;;13.10;99.90;;;;;;5020111;28;20492;-83
2021/09/24 06:10:53;;;;;;;10.53;7.17;;;13.10;99.90;;;;;;5020699;28;20482;-83
2021/09/24 06:13:21;;;;;;;9.50;7.10;;;13.20;99.90;;;;;;5034273;28;20542;-81
2021/09/24 06:15:48;;;;;;;10.40;6.70;;;13.20;99.90;;;;;;5044478;28;20489;-81
2021/09/24 06:18:15;;;;;;;13.00;7.50;;;13.20;99.90;;;;;;5037154;28;20451;-80
2021/09/24 06:20:42;;;;;;;10.80;7.90;;;13.30;99.90;;;;;;5027498;28;20464;-82
2021/09/24 06:23:10;;;;;;;9.90;6.30;;;13.40;99.90;;;;;;5038437;28;20424;-80
2021/09/24 06:25:37;;;;;;;10.07;6.77;;;13.50;99.90;;;;;;5044634;28;20450;-80
2021/09/24 06:28:04;;;;;;;10.03;6.93;;;13.50;99.90;;;;;;5045286;28;20405;-80
2021/09/24 06:30:33;;;;;;;9.87;6.90;;;13.60;99.90;;;;;;5045304;28;20448;-80
2021/09/24 06:33:01;;;;;;;9.50;6.50;;;13.70;99.90;;;;;;5037442;28;20496;-77
2021/09/24 06:35:27;;;;;;;9.93;6.87;;;13.70;99.90;;;;;;5039624;28;20450;-79
2021/09/24 06:37:54;;;;;;;9.73;6.23;;;13.80;99.90;;;;;;5039970;28;20432;-78
2021/09/24 06:40:21;;;;;;;11.00;7.17;;;13.90;99.90;;;;;;5038993;28;20480;-78
2021/09/24 06:42:48;;;;;;;8.13;5.90;;;14.00;99.90;;;;;;5041127;28;20505;-78
2021/09/24 06:45:15;;;;;;;9.37;6.73;;;14.10;99.90;;;;;;5040222;28;20524;-78
2021/09/24 06:47:43;;;;;;;9.90;7.00;;;14.20;99.90;;;;;;5025374;28;20552;-80
2021/09/24 06:50:12;;;;;;;8.47;6.43;;;14.20;99.90;;;;;;5024484;28;20508;-80
2021/09/24 06:52:39;;;;;;;9.33;6.37;;;14.30;99.90;;;;;;5027232;28;20471;-80
2021/09/24 06:55:06;;;;;;;9.43;6.80;;;14.40;99.90;;;;;;5040816;28;20941;-79
2021/09/24 06:57:34;;;;;;;9.27;7.30;;;14.50;99.90;;;;;;5041236;28;20531;-79
2021/09/24 07:00:00;;;;;;;9.33;6.47;;;14.60;99.90;;;;;;5041422;28;20471;-79
2021/09/24 07:02:27;;;;;;;8.07;6.50;;;14.70;99.90;;;;;;5026087;28;20423;-79
2021/09/24 07:04:56;;;;;;;11.07;6.60;;;14.80;99.90;;;;;;5041223;28;20833;-79
2021/09/24 07:07:22;;;;;;;9.07;7.20;;;14.90;99.90;;;;;;5042632;28;20515;-79
2021/09/24 07:09:49;;;;;;;10.53;6.97;;;15.00;99.90;;;;;;5041622;28;20470;-79
2021/09/24 07:12:16;;;;;;;9.60;6.17;;;15.10;99.90;;;;;;5038427;28;20525;-79
2021/09/24 07:14:43;;;;;;;12.47;7.00;;;15.10;99.90;;;;;;5039206;28;20735;-79
2021/09/24 07:17:10;;;;;;;9.60;7.00;;;15.20;99.90;;;;;;5021915;28;20440;-79
2021/09/24 07:19:37;;;;;;;9.47;6.73;;;15.40;99.90;;;;;;5040778;28;20473;-79
2021/09/24 07:22:05;;;;;;;9.03;6.90;;;15.50;99.90;;;;;;5041137;28;20503;-78
2021/09/24 07:24:32;;;;;;;7.97;5.97;;;15.60;99.90;;;;;;5024746;28;20448;-79
2021/09/24 07:26:59;;;;;;;8.37;6.27;;;15.70;99.90;;;;;;5039350;28;20537;-79
2021/09/24 07:29:25;;;;;;;9.13;6.60;;;15.70;99.90;;;;;;5035066;28;20657;-79
2021/09/24 07:31:52;;;;;;;10.40;7.50;;;15.80;99.90;;;;;;5031827;28;20834;-79
2021/09/24 07:34:19;;;;;;;9.23;6.60;;;15.90;99.90;;;;;;5040616;28;20533;-79
2021/09/24 07:36:46;;;;;;;9.77;6.00;;;16.10;99.90;;;;;;5040761;28;20497;-79
2021/09/24 07:39:14;;;;;;;10.23;6.97;;;16.20;99.90;;;;;;5040242;28;20462;-79
2021/09/24 07:41:41;;;;;;;11.70;7.67;;;16.40;99.90;;;;;;5040129;28;20546;-79
2021/09/24 07:44:08;;;;;;;11.27;7.63;;;16.40;99.90;;;;;;5032970;28;20493;-79
2021/09/24 07:46:35;;;;;;;12.00;6.80;;;16.50;99.90;;;;;;5020841;28;20441;-79
2021/09/24 07:49:03;;;;;;;9.70;7.10;;;16.70;99.90;;;;;;5020365;28;20430;-79
2021/09/24 07:51:30;;;;;;;9.40;7.53;;;16.80;99.90;;;;;;5020454;28;20511;-80
2021/09/24 07:53:57;;;;;;;7.80;6.27;;;16.90;99.90;;;;;;5034752;28;20483;-79
2021/09/24 07:56:25;;;;;;;8.77;6.77;;;16.90;99.90;;;;;;5040515;28;20464;-79
2021/09/24 07:58:52;;;;;;;8.73;6.90;;;17.00;99.90;;;;;;5030608;28;20453;-79
2021/09/24 08:01:19;;;;;;;8.10;6.60;;;17.10;99.90;;;;;;5018915;28;20499;-79
2021/09/24 08:03:45;;;;;;;9.77;6.83;;;17.20;99.90;;;;;;5032563;28;20473;-79
2021/09/24 08:06:14;;;;;;;9.53;7.67;;;17.30;99.90;;;;;;5040135;28;20880;-79
2021/09/24 08:08:41;;;;;;;8.67;6.10;;;17.40;99.90;;;;;;5041649;28;20449;-79
2021/09/24 08:11:08;;;;;;;10.67;6.20;;;17.40;99.90;;;;;;5039076;28;20526;-79
2021/09/24 08:13:36;;;;;;;7.43;5.90;;;17.50;99.90;;;;;;5038088;28;20463;-80
2021/09/24 08:16:03;;;;;;;7.47;5.40;;;17.60;99.90;;;;;;5040945;28;20463;-83
2021/09/24 08:18:30;;;;;;;7.93;5.83;;;17.70;99.90;;;;;;5044179;28;21017;-83
2021/09/24 08:20:59;;;;;;;8.30;6.50;;;17.70;99.90;;;;;;5044631;28;20516;-83
2021/09/24 08:23:26;;;;;;;9.17;5.60;;;17.80;99.90;;;;;;5046517;28;20465;-84
2021/09/24 08:25:53;;;;;;;7.43;6.30;;;17.80;99.90;;;;;;5039901;28;20487;-83
2021/09/24 08:28:20;;;;;;;8.50;6.50;;;17.90;99.90;;;;;;5033770;28;20460;-83
2021/09/24 08:30:48;;;;;;;10.13;6.90;;;18.00;99.90;;;;;;5040135;28;20483;-83
2021/09/24 08:33:16;;;;;;;10.70;6.43;;;18.10;99.90;;;;;;5040549;28;20470;-83
2021/09/24 08:35:43;;;;;;;11.40;5.93;;;18.20;99.90;;;;;;5040233;28;20488;-82
2021/09/24 08:38:10;;;;;;;9.40;6.70;;;18.20;99.90;;;;;;5048252;28;20474;-82
2021/09/24 08:40:38;;;;;;;10.30;5.60;;;18.30;99.90;;;;;;5054183;28;20519;-81
2021/09/24 08:43:06;;;;;;;8.30;6.03;;;18.30;99.90;;;;;;5042703;28;20482;-82
2021/09/24 08:45:34;;;;;;;7.90;6.00;;;18.40;99.90;;;;;;5054401;28;20487;-83
2021/09/24 08:48:05;;;;;;;9.47;5.90;;;18.40;99.90;;;;;;5046893;28;20460;-82
2021/09/24 08:50:33;;;;;;;8.37;5.60;;;18.50;99.90;;;;;;5053993;28;20541;-80
2021/09/24 08:53:00;;;;;;;8.97;6.00;;;18.50;99.90;;;;;;5053542;28;20459;-80
2021/09/24 08:55:28;;;;;;;7.30;6.10;;;18.50;99.90;;;;;;5051074;28;20449;-81
2021/09/24 08:57:55;;;;;;;9.30;5.80;;;18.50;99.90;;;;;;5026718;28;20457;-82
2021/09/24 09:00:22;;;;;;;8.53;6.17;;;18.60;99.90;;;;;;5041484;28;20455;-82
2021/09/24 09:02:58;;;;;;;10.00;6.40;;;18.70;99.90;;;;;;5041414;28;20471;-82
2021/09/24 09:05:28;;;;;;;8.43;5.93;;;18.80;99.90;;;;;;5031745;28;20486;-82
2021/09/24 09:08:14;;;;;;;8.97;5.80;;;19.00;99.90;;;;;;5042531;28;20520;-81
2021/09/24 09:10:44;;;;;;;8.20;5.47;;;19.10;99.90;;;;;;5032154;28;20781;-81
2021/09/24 09:13:13;;;;;;;8.67;6.00;;;19.10;99.90;;;;;;5028305;28;20880;-83
2021/09/24 09:15:41;;;;;;;12.27;5.87;;;19.20;99.90;;;;;;5041067;28;20480;-81
2021/09/24 09:18:17;;;;;;;10.27;6.70;;;19.30;99.90;;;;;;5041402;28;20445;-81
2021/09/24 09:20:47;;;;;;;7.90;5.60;;;19.40;99.90;;;;;;5042059;28;20511;-81
2021/09/24 09:23:14;;;;;;;8.70;6.40;;;19.50;99.90;;;;;;5041465;28;20459;-81
2021/09/24 09:25:43;;;;;;;10.90;6.63;;;19.50;99.90;;;;;;5040085;28;20445;-81
2021/09/24 09:28:15;;;;;;;9.90;5.30;;;19.50;99.90;;;;;;5039057;28;20774;-82
2021/09/24 09:30:44;;;;;;;8.00;5.40;;;19.70;99.90;;;;;;5040396;28;20552;-81
2021/09/24 09:33:15;;;;;;;6.50;4.67;;;19.60;99.90;;;;;;5039521;28;20453;-83
2021/09/24 09:35:47;;;;;;;9.80;5.60;;;19.70;99.90;;;;;;5040227;28;20484;-82
2021/09/24 09:38:19;;;;;;;6.90;4.63;;;19.80;99.90;;;;;;5042817;28;20460;-80
2021/09/24 09:40:49;;;;;;;8.00;5.40;;;19.80;99.90;;;;;;5048953;28;20511;-81
2021/09/24 09:43:21;;;;;;;11.37;4.87;;;19.60;99.90;;;;;;5040531;28;20547;-80
2021/09/24 09:45:48;;;;;;;9.80;6.93;;;19.50;99.90;;;;;;5040094;28;20568;-82
2021/09/24 09:48:15;;;;;;;10.03;5.83;;;19.50;99.90;;;;;;5041595;28;20536;-82
2021/09/24 09:50:46;;;;;;;7.53;5.20;;;19.70;99.90;;;;;;5041698;28;20500;-81
2021/09/24 09:53:16;;;;;;;6.43;4.70;;;19.80;99.90;;;;;;5044693;28;20460;-81
2021/09/24 09:55:48;;;;;;;6.60;4.03;;;20.00;99.90;;;;;;5042821;28;20445;-81
2021/09/24 09:58:17;;;;;;;5.90;3.83;;;20.10;99.90;;;;;;5043762;28;20445;-81
2021/09/24 10:01:03;;;;;;;8.13;3.97;;;20.10;99.90;;;;;;5044683;28;20478;-82
2021/09/24 10:03:38;;;;;;;8.00;4.00;;;20.10;99.90;;;;;;5063905;23;20512;-77
2021/09/24 10:06:21;;;;;;;6.20;4.60;;;20.20;99.90;;;;;;5053383;28;20468;-78
2021/09/24 10:08:52;;;;;;;7.87;6.07;;;20.40;99.90;;;;;;5050705;28;20976;-79
2021/09/24 10:11:20;;;;;;;6.53;4.33;;;20.50;99.90;;;;;;5040095;28;20448;-79
2021/09/24 10:13:53;;;;;;;6.57;4.10;;;20.50;99.90;;;;;;5051820;28;20991;-79
2021/09/24 10:16:22;;;;;;;5.60;4.20;;;20.50;99.90;;;;;;5058989;28;20527;-77
2021/09/24 10:18:49;;;;;;;7.00;3.93;;;20.50;99.90;;;;;;5049393;28;20452;-78
2021/09/24 10:21:18;;;;;;;5.23;4.00;;;20.60;99.90;;;;;;5058407;28;20895;-78
2021/09/24 10:23:46;;;;;;;6.90;4.60;;;20.60;99.90;;;;;;5051614;28;20499;-78
2021/09/24 10:26:20;;;;;;;5.20;3.80;;;20.50;99.90;;;;;;5037861;28;20457;-78
2021/09/24 10:28:48;;;;;;;6.10;3.50;;;20.50;99.90;;;;;;5043623;28;20444;-78
2021/09/24 10:31:19;;;;;;;11.30;5.00;;;20.50;99.90;;;;;;5044989;28;20464;-78
2021/09/24 10:33:49;;;;;;;5.67;4.07;;;20.50;99.90;;;;;;5039094;28;20495;-78
2021/09/24 10:36:40;;;;;;;6.30;4.47;;;20.50;99.90;;;;;;5037278;28;20922;-78
2021/09/24 10:39:37;;;;;;;6.90;4.53;;;20.60;99.90;;;;;;5046117;28;20806;-78
2021/09/24 10:42:27;;;;;;;5.60;3.77;;;20.60;99.90;;;;;;5057517;28;20440;-78
2021/09/24 10:45:12;;;;;;;6.23;4.07;;;20.80;99.90;;;;;;5057490;28;20458;-78
2021/09/24 10:48:05;;;;;;;5.77;3.83;;;20.80;99.90;;;;;;5061689;28;20788;-78
2021/09/24 10:51:03;;;;;;;10.93;5.50;;;20.80;99.90;;;;;;5058694;28;20446;-79
2021/09/24 10:53:48;;;;;;;9.50;4.77;;;20.90;99.90;;;;;;5040060;28;20460;-79
2021/09/24 10:56:29;;;;;;;7.57;5.67;;;20.90;99.90;;;;;;5044064;28;20453;-80
2021/09/24 10:58:57;;;;;;;5.47;3.80;;;21.10;99.90;;;;;;5018097;28;20486;-78
2021/09/24 11:01:40;;;;;;;6.30;3.67;;;21.10;99.90;;;;;;5030787;28;20468;-79
2021/09/24 11:04:12;;;;;;;5.93;4.60;;;21.20;99.90;;;;;;5040327;28;20469;-79
2021/09/24 11:06:42;;;;;;;7.40;4.53;;;21.20;99.90;;;;;;5039301;28;20456;-78
2021/09/24 11:09:12;;;;;;;6.90;5.17;;;21.30;99.90;;;;;;5038480;28;20532;-81
2021/09/24 11:11:41;;;;;;;9.93;4.43;;;21.20;99.90;;;;;;5038899;28;20492;-79
2021/09/24 11:14:33;;;;;;;6.13;4.53;;;21.20;99.90;;;;;;5038287;28;20557;-81
2021/09/24 11:17:01;;;;;;;6.50;4.67;;;21.10;99.90;;;;;;5038208;28;20517;-80
2021/09/24 11:19:34;;;;;;;6.00;4.00;;;21.10;99.90;;;;;;5037928;28;20444;-80
2021/09/24 11:22:04;;;;;;;6.40;4.07;;;21.10;99.90;;;;;;5038671;28;20497;-80
2021/09/24 11:24:34;;;;;;;5.30;3.87;;;21.10;99.90;;;;;;5038348;28;20548;-79
2021/09/24 11:27:04;;;;;;;7.40;4.33;;;21.10;99.90;;;;;;5038430;28;20450;-81
2021/09/24 11:29:32;;;;;;;6.97;3.63;;;21.20;99.90;;;;;;5037589;28;20451;-80
2021/09/24 11:32:09;;;;;;;7.37;4.40;;;21.30;99.90;;;;;;5037353;28;20452;-78
2021/09/24 11:34:55;;;;;;;5.87;4.23;;;21.30;99.90;;;;;;5037959;28;20603;-81
2021/09/24 11:37:24;;;;;;;7.30;4.60;;;21.20;99.90;;;;;;5037420;28;20503;-81
2021/09/24 11:40:05;;;;;;;6.90;4.30;;;21.10;99.90;;;;;;5038189;28;20540;-79
2021/09/24 11:42:34;;;;;;;8.70;4.50;;;21.00;99.90;;;;;;5043342;28;20446;-77
2021/09/24 11:45:04;;;;;;;6.40;4.70;;;21.10;99.90;;;;;;5043198;28;20440;-81
2021/09/24 11:47:33;;;;;;;6.47;4.00;;;21.10;99.90;;;;;;5037691;28;20519;-81
2021/09/24 11:50:03;;;;;;;6.40;4.57;;;21.10;99.90;;;;;;5037220;28;20462;-81
2021/09/24 11:52:43;;;;;;;6.60;4.47;;;21.20;99.90;;;;;;5045436;28;20431;-79
2021/09/24 11:55:19;;;;;;;6.90;4.87;;;21.30;99.90;;;;;;5045237;28;20810;-80
2021/09/24 11:57:58;;;;;;;9.00;3.90;;;21.40;99.90;;;;;;5036694;28;20441;-80
2021/09/24 12:00:25;;;;;;;7.40;4.33;;;21.50;99.90;;;;;;5037697;28;20548;-81
2021/09/24 12:03:20;;;;;;;7.80;4.37;;;21.40;99.90;;;;;;5038060;28;20497;-79
2021/09/24 12:05:53;;;;;;;5.73;4.23;;;21.30;99.90;;;;;;5049537;28;20457;-81
2021/09/24 12:08:21;;;;;;;7.13;3.93;;;21.40;99.90;;;;;;5051207;28;20501;-81
2021/09/24 12:10:56;;;;;;;6.30;4.80;;;21.40;99.90;;;;;;5042019;28;20442;-81
2021/09/24 12:13:23;;;;;;;9.90;4.40;;;21.50;99.90;;;;;;5037070;28;20473;-80
2021/09/24 12:15:52;;;;;;;6.50;3.97;;;21.70;99.80;;;;;;5036920;28;20488;-81
2021/09/24 12:18:18;;;;;;;5.60;4.47;;;21.80;99.50;;;;;;5036367;28;20472;-81
2021/09/24 12:20:46;;;;;;;6.00;4.30;;;21.80;99.60;;;;;;5037120;28;20473;-81
2021/09/24 12:23:14;;;;;;;9.63;4.70;;;21.70;99.60;;;;;;5037232;28;20476;-81
2021/09/24 12:25:41;;;;;;;6.33;4.30;;;21.70;99.70;;;;;;5036868;28;20450;-80
2021/09/24 12:28:11;;;;;;;6.17;4.67;;;21.70;99.30;;;;;;5036073;28;20544;-81
2021/09/24 12:30:39;;;;;;;6.53;4.40;;;21.70;99.40;;;;;;5037285;28;20476;-80
2021/09/24 12:33:13;;;;;;;6.47;4.40;;;21.80;98.80;;;;;;5035503;28;20475;-79
2021/09/24 12:35:40;;;;;;;7.90;5.00;;;21.80;98.60;;;;;;5015741;28;20481;-80
2021/09/24 12:38:26;;;;;;;6.10;4.50;;;21.80;99.00;;;;;;5016295;28;20439;-80
2021/09/24 12:41:11;;;;;;;7.13;4.83;;;21.70;98.50;;;;;;5016301;28;20800;-81
2021/09/24 12:43:40;;;;;;;7.57;5.30;;;21.60;98.60;;;;;;5016749;28;20449;-80
2021/09/24 12:46:08;;;;;;;6.67;4.87;;;21.70;98.50;;;;;;5016795;28;20446;-81
2021/09/24 12:48:40;;;;;;;5.97;4.53;;;21.90;98.10;;;;;;5018205;28;20561;-80
2021/09/24 12:51:08;;;;;;;10.80;5.30;;;22.00;98.20;;;;;;5023544;28;20445;-81
2021/09/24 12:53:37;;;;;;;7.43;5.10;;;22.00;98.20;;;;;;5035473;28;20624;-81